Time;durP1;ratioP1;P1;durP2;ratioP2;P2;SDS_P1;SDS_P2;PMS_P1;PMS_P2;Temp;Humidity;BMP_temperature;BMP_pressure;BME280_temperature;BME280_humidity;BME280_pressure;Samples;Min_cycle;Max_cycle;Signal;HPM_P1;HPM_P2
2023/01/15 00:01:29;;;;;;;1.87;1.43;;;8.90;83.20;;;8.44;72.95;96747.41;5043133;28;20820;-83
2023/01/15 00:03:59;;;;;;;2.60;1.83;;;8.90;82.90;;;8.22;72.77;96702.22;5054787;28;20451;-79
2023/01/15 00:06:28;;;;;;;2.67;1.30;;;8.90;82.80;;;8.50;73.36;96778.81;5054574;28;20629;-82
2023/01/15 00:08:55;;;;;;;1.67;1.40;;;8.90;83.00;;;8.61;73.02;96773.69;5044183;28;20937;-78
2023/01/15 00:11:23;;;;;;;1.23;1.03;;;8.80;82.70;;;8.47;72.02;96765.78;5058663;28;20449;-80
2023/01/15 00:13:52;;;;;;;2.73;1.37;;;8.80;82.20;;;8.66;72.41;96754.94;5049187;28;20455;-79
2023/01/15 00:16:22;;;;;;;1.50;1.10;;;8.90;82.40;;;8.70;72.49;96737.25;5042334;28;20545;-78
2023/01/15 00:18:52;;;;;;;2.43;1.40;;;8.90;82.20;;;8.79;72.04;96746.63;5045740;28;20455;-80
2023/01/15 00:21:20;;;;;;;2.50;1.40;;;9.00;82.30;;;8.64;72.48;96713.97;5063727;28;20474;-80
2023/01/15 00:29:19;;;;;;;2.33;1.27;;;9.00;82.60;;;8.77;72.16;96739.81;5045020;28;20448;-78
2023/01/15 00:31:55;;;;;;;2.43;1.07;;;9.00;82.30;;;8.85;71.93;96725.19;5048426;28;20444;-83
2023/01/15 00:34:27;;;;;;;3.27;1.70;;;9.00;82.30;;;8.87;72.25;96731.16;5052972;28;20454;-81
2023/01/15 00:36:55;;;;;;;1.30;1.20;;;9.10;82.40;;;8.64;72.13;96695.13;5043429;28;20449;-82
2023/01/15 00:39:23;;;;;;;2.60;1.00;;;9.00;82.30;;;8.14;71.98;96611.09;5048106;28;20820;-81
2023/01/15 00:41:52;;;;;;;2.70;1.17;;;9.10;82.10;;;8.94;71.36;96723.78;5052339;28;20464;-80
2023/01/15 00:44:20;;;;;;;2.27;1.37;;;9.20;82.00;;;8.96;71.80;96721.66;5044109;28;20536;-81
2023/01/15 00:46:47;;;;;;;2.40;1.10;;;9.20;82.10;;;9.05;71.61;96706.78;5042908;28;20470;-80
2023/01/15 00:49:15;;;;;;;1.23;1.13;;;9.20;82.20;;;8.94;71.42;96675.28;5039561;28;20446;-77
2023/01/15 00:51:44;;;;;;;1.57;1.47;;;9.30;81.90;;;8.88;71.99;96678.94;5039413;28;20461;-80
2023/01/15 00:54:11;;;;;;;1.67;1.30;;;9.30;82.20;;;8.97;71.65;96685.56;5041461;28;20448;-79
2023/01/15 00:56:38;;;;;;;1.43;0.90;;;9.30;82.10;;;9.02;71.83;96669.53;5042328;28;20475;-81
2023/01/15 00:59:06;;;;;;;1.27;1.00;;;9.40;82.30;;;9.16;71.91;96693.50;5043169;28;20483;-81
2023/01/15 01:01:33;;;;;;;1.27;0.90;;;9.40;82.10;;;9.16;71.47;96693.50;5050932;28;21111;-80
2023/01/15 01:04:01;;;;;;;1.80;1.00;;;9.50;82.10;;;9.24;71.49;96697.69;5045466;28;20448;-81
2023/01/15 01:06:28;;;;;;;2.10;1.30;;;9.50;82.00;;;9.18;71.12;96669.84;5032846;28;20527;-78
2023/01/15 01:08:57;;;;;;;0.97;0.80;;;9.60;82.00;;;9.02;71.30;96631.81;5043992;28;20757;-80
2023/01/15 01:11:27;;;;;;;3.70;1.07;;;9.60;82.00;;;9.26;71.65;96674.84;5041397;28;20460;-80
2023/01/15 01:13:55;;;;;;;1.13;1.00;;;9.60;82.00;;;9.47;71.76;96694.91;5019913;28;20473;-80
2023/01/15 01:16:29;;;;;;;1.00;0.97;;;9.70;82.00;;;9.51;71.54;96689.88;5044344;28;20498;-80
2023/01/15 01:18:58;;;;;;;0.73;0.70;;;9.70;82.00;;;9.36;71.81;96671.50;5045573;28;20954;-79
2023/01/15 01:21:25;;;;;;;2.10;0.90;;;9.70;82.20;;;9.56;71.05;96695.34;5039735;28;20526;-85
2023/01/15 01:23:53;;;;;;;1.73;1.30;;;9.70;81.90;;;9.53;71.49;96695.84;5045367;28;20510;-79
2023/01/15 01:26:22;;;;;;;3.97;1.20;;;9.70;81.80;;;9.47;70.87;96667.13;5025795;28;20476;-79
2023/01/15 01:28:50;;;;;;;1.20;0.80;;;9.70;82.00;;;9.72;70.70;96684.84;5025547;28;20459;-81
2023/01/15 01:31:19;;;;;;;1.53;1.23;;;9.80;82.30;;;9.70;70.94;96687.78;5042187;28;20464;-79
2023/01/15 01:33:49;;;;;;;1.63;0.90;;;9.90;82.00;;;9.71;70.71;96669.72;5044168;28;20467;-80
2023/01/15 01:36:18;;;;;;;0.67;0.67;;;9.90;82.00;;;9.61;71.37;96668.47;5038210;28;20460;-79
2023/01/15 01:38:49;;;;;;;1.00;0.90;;;9.80;82.00;;;9.69;70.72;96669.94;5059877;28;20459;-79
2023/01/15 01:41:17;;;;;;;1.10;0.90;;;9.90;82.10;;;9.68;71.89;96670.22;5041353;28;20464;-80
2023/01/15 01:44:01;;;;;;;4.30;1.20;;;9.90;82.30;;;9.72;71.36;96663.25;5053890;28;20917;-80
2023/01/15 01:46:30;;;;;;;2.63;0.90;;;9.90;82.20;;;9.50;71.60;96634.31;5032242;28;20845;-80
2023/01/15 01:49:02;;;;;;;1.07;0.87;;;9.90;82.20;;;9.68;70.98;96645.94;5031629;28;20526;-77
2023/01/15 01:51:36;;;;;;;2.27;0.90;;;9.90;82.00;;;9.59;70.98;96622.06;5058225;28;20467;-78
2023/01/15 01:54:04;;;;;;;1.47;0.87;;;9.90;82.00;;;9.60;70.87;96633.66;5041548;28;20475;-78
2023/01/15 01:56:35;;;;;;;1.63;0.80;;;10.00;81.00;;;9.81;71.19;96640.22;5048008;28;20452;-75
2023/01/15 01:59:05;;;;;;;1.00;0.83;;;10.00;80.80;;;9.43;71.07;96568.94;5035560;28;20511;-77
2023/01/15 02:01:33;;;;;;;0.60;0.60;;;10.00;80.70;;;9.70;70.66;96606.84;5031143;28;21003;-80
2023/01/15 02:04:00;;;;;;;0.80;0.40;;;10.10;80.80;;;9.87;70.85;96617.66;5013158;28;20470;-78
2023/01/15 02:06:29;;;;;;;2.20;0.63;;;10.10;80.70;;;10.00;70.64;96615.72;5030993;28;20471;-80
2023/01/15 02:08:56;;;;;;;1.27;0.60;;;10.10;80.60;;;9.90;70.17;96606.38;5058115;28;20485;-81
2023/01/15 02:11:25;;;;;;;1.00;0.87;;;10.10;80.50;;;9.83;70.43;96613.84;5051352;28;20450;-86
2023/01/15 02:14:00;;;;;;;0.77;0.70;;;10.10;80.40;;;9.78;70.01;96594.84;5053362;28;20463;-81
2023/01/15 02:16:40;;;;;;;1.27;0.50;;;10.10;80.20;;;9.92;69.35;96609.66;5054887;28;20447;-80
2023/01/15 02:19:22;;;;;;;1.37;1.00;;;10.10;80.20;;;9.94;69.55;96601.31;5050500;28;20448;-81
2023/01/15 02:22:00;;;;;;;1.00;0.40;;;10.10;80.00;;;9.82;68.95;96584.41;5046195;28;20449;-84
2023/01/15 02:24:38;;;;;;;1.00;0.70;;;10.10;79.90;;;9.80;68.95;96581.97;5029281;28;20460;-81
2023/01/15 02:27:16;;;;;;;2.23;0.77;;;10.10;79.70;;;9.54;69.47;96568.06;5045660;28;21186;-82
2023/01/15 02:29:54;;;;;;;1.00;0.50;;;10.00;79.50;;;9.30;68.87;96500.78;5046519;28;20546;-81
2023/01/15 02:32:30;;;;;;;1.43;0.53;;;10.10;79.60;;;9.74;68.83;96572.13;5023030;28;20454;-80
2023/01/15 02:35:04;;;;;;;0.50;0.40;;;10.10;79.30;;;9.64;68.34;96549.34;5008569;28;20907;-80
2023/01/15 02:37:37;;;;;;;1.27;0.50;;;10.00;79.00;;;9.83;68.58;96586.03;5023881;28;20460;-85
2023/01/15 02:40:07;;;;;;;1.47;0.57;;;10.10;79.00;;;9.70;67.82;96569.09;5044892;28;21410;-84
2023/01/15 02:42:37;;;;;;;0.57;0.37;;;10.10;78.60;;;9.83;67.49;96584.16;5062471;28;20468;-83
2023/01/15 02:45:09;;;;;;;0.50;0.40;;;10.10;78.40;;;9.89;66.84;96572.38;5046313;28;20481;-83
2023/01/15 02:47:44;;;;;;;0.90;0.60;;;10.20;78.20;;;9.62;67.53;96539.88;5069330;28;20478;-84
2023/01/15 02:50:15;;;;;;;0.60;0.50;;;10.10;78.30;;;9.52;66.93;96510.03;5068593;28;20813;-76
2023/01/15 02:52:47;;;;;;;1.23;0.70;;;10.10;78.10;;;9.81;67.23;96553.91;5078518;28;20436;-78
2023/01/15 02:55:20;;;;;;;1.70;0.90;;;10.10;77.70;;;9.55;66.79;96502.28;5063601;28;20492;-80
2023/01/15 02:57:51;;;;;;;0.77;0.63;;;10.20;77.70;;;9.91;66.97;96564.03;5054966;28;20521;-79
2023/01/15 03:00:22;;;;;;;1.33;1.13;;;10.20;77.90;;;9.66;66.04;96497.06;5033623;28;20519;-79
2023/01/15 03:02:56;;;;;;;1.53;0.90;;;10.20;77.50;;;9.84;66.04;96531.84;5030299;28;20451;-81
2023/01/15 03:05:28;;;;;;;0.93;0.60;;;10.20;77.40;;;8.50;66.26;96331.16;5044537;28;20454;-77
2023/01/15 03:07:58;;;;;;;1.20;0.73;;;10.20;77.30;;;9.53;66.32;96495.50;5023429;28;20493;-79
2023/01/15 03:10:37;;;;;;;0.83;0.53;;;10.20;77.20;;;9.86;66.14;96518.91;5031850;28;20533;-77
2023/01/15 03:13:07;;;;;;;0.70;0.50;;;10.20;76.90;;;10.00;65.07;96548.25;5043123;28;20506;-78
2023/01/15 03:18:37;;;;;;;1.00;0.70;;;10.20;76.60;;;9.88;65.75;96527.56;5041564;28;20452;-79
2023/01/15 03:21:08;;;;;;;1.10;0.70;;;10.30;76.50;;;10.04;66.00;96541.28;5048319;28;20462;-79
2023/01/15 03:23:39;;;;;;;0.70;0.50;;;10.30;76.60;;;10.03;65.10;96520.78;5033133;28;21243;-78
2023/01/15 03:26:07;;;;;;;1.10;0.87;;;10.30;76.30;;;10.05;64.69;96542.91;5049379;28;20459;-78
2023/01/15 03:28:38;;;;;;;1.17;0.77;;;10.30;75.90;;;10.11;65.01;96541.94;5042991;28;20481;-78
2023/01/15 03:31:06;;;;;;;0.70;0.40;;;10.30;75.90;;;10.10;64.90;96532.22;5040257;28;20458;-77
2023/01/15 03:33:36;;;;;;;1.60;0.53;;;10.30;75.80;;;10.14;64.33;96524.41;5047692;28;20449;-75
2023/01/15 03:36:04;;;;;;;0.90;0.40;;;10.40;75.70;;;10.12;65.09;96532.78;5020131;28;20811;-78
2023/01/15 03:38:34;;;;;;;2.27;0.67;;;10.40;75.70;;;10.19;64.85;96538.00;5048419;28;20456;-79
2023/01/15 03:41:15;;;;;;;1.13;0.40;;;10.40;75.60;;;10.26;64.09;96529.72;5030571;28;20457;-78
2023/01/15 03:44:02;;;;;;;1.00;0.60;;;10.40;75.70;;;9.95;64.72;96499.63;5034225;28;20449;-78
2023/01/15 03:46:58;;;;;;;0.93;0.60;;;10.40;75.60;;;10.28;64.51;96532.97;5059822;28;20447;-78
2023/01/15 03:49:38;;;;;;;0.83;0.53;;;10.50;75.90;;;10.13;65.13;96529.00;5032730;28;20483;-79
2023/01/15 03:52:13;;;;;;;0.87;0.57;;;10.50;75.80;;;10.29;64.80;96538.13;5038245;28;20525;-81
2023/01/15 03:54:49;;;;;;;1.60;0.50;;;10.40;76.00;;;10.14;65.46;96532.50;5052567;28;20458;-79
2023/01/15 03:57:28;;;;;;;0.90;0.60;;;10.40;75.90;;;10.32;64.57;96526.00;5050983;28;20453;-82
2023/01/15 04:00:01;;;;;;;1.37;0.53;;;10.50;75.90;;;9.84;64.87;96456.31;5034547;28;20456;-81
2023/01/15 04:02:30;;;;;;;0.60;0.53;;;10.50;76.00;;;10.12;66.68;96505.78;5042440;28;20461;-81
2023/01/15 04:04:59;;;;;;;0.90;0.60;;;10.50;76.70;;;10.20;67.28;96513.44;5033709;28;20464;-82
2023/01/15 04:07:27;;;;;;;0.70;0.50;;;10.50;77.30;;;10.03;67.63;96501.88;5049348;28;21162;-79
2023/01/15 04:09:54;;;;;;;0.40;0.40;;;10.50;77.80;;;10.00;68.25;96486.19;5048401;28;20445;-81
2023/01/15 04:12:21;;;;;;;0.67;0.40;;;10.40;78.30;;;9.90;68.58;96458.00;5029026;28;20456;-82
2023/01/15 04:14:49;;;;;;;0.77;0.50;;;10.40;78.80;;;10.07;70.03;96508.41;5051734;28;20458;-81
2023/01/15 04:17:17;;;;;;;2.07;0.77;;;10.40;79.10;;;10.01;70.72;96498.63;5027665;28;20445;-81
2023/01/15 04:19:45;;;;;;;0.57;0.50;;;10.30;79.80;;;10.07;70.32;96493.03;5040013;28;21168;-80
2023/01/15 04:22:12;;;;;;;0.80;0.40;;;10.30;80.20;;;9.99;71.08;96496.16;5025691;28;21017;-80
2023/01/15 04:24:40;;;;;;;0.70;0.40;;;10.30;80.50;;;9.84;72.46;96479.75;5042947;28;20467;-86
2023/01/15 04:27:09;;;;;;;0.70;0.40;;;10.30;80.80;;;9.95;71.92;96480.75;5043649;28;20484;-79
2023/01/15 04:29:36;;;;;;;0.87;0.60;;;10.30;81.00;;;9.98;72.12;96483.72;5043988;28;20452;-84
2023/01/15 04:32:04;;;;;;;0.53;0.30;;;10.30;81.10;;;9.99;71.64;96487.25;5035946;28;20464;-78
2023/01/15 04:34:34;;;;;;;1.27;0.50;;;10.30;81.10;;;9.91;71.85;96483.09;5023433;28;20575;-79
2023/01/15 04:37:01;;;;;;;0.60;0.40;;;10.30;81.10;;;9.97;72.82;96484.00;5023484;28;20509;-78
2023/01/15 04:39:29;;;;;;;0.60;0.47;;;10.20;81.30;;;9.97;72.10;96484.00;5021359;28;20462;-79
2023/01/15 04:44:41;;;;;;;0.80;0.50;;;10.20;81.30;;;9.48;72.58;96391.09;5036027;28;20528;-78
2023/01/15 04:47:09;;;;;;;0.80;0.47;;;10.20;81.50;;;9.94;72.51;96460.22;5046208;28;20471;-78
2023/01/15 04:49:39;;;;;;;0.70;0.50;;;10.20;81.50;;;9.90;72.25;96444.50;5036479;28;20445;-78
2023/01/15 04:52:06;;;;;;;0.70;0.50;;;10.30;81.50;;;10.01;72.42;96466.25;5037288;28;20447;-82
2023/01/15 04:54:33;;;;;;;1.10;0.50;;;10.30;81.50;;;10.03;71.79;96458.72;5020580;28;20448;-83
2023/01/15 04:57:00;;;;;;;0.50;0.40;;;10.20;81.50;;;9.90;72.31;96428.31;5045210;28;20459;-77
2023/01/15 04:59:28;;;;;;;0.80;0.50;;;10.20;81.50;;;9.94;73.38;96452.13;5044139;28;20454;-81
2023/01/15 05:01:55;;;;;;;1.70;0.80;;;10.20;81.80;;;9.87;72.88;96428.84;5040415;28;21018;-78
2023/01/15 05:04:23;;;;;;;1.37;0.60;;;10.30;81.80;;;9.92;73.36;96436.19;5043971;28;20458;-78
2023/01/15 05:06:52;;;;;;;0.50;0.40;;;10.20;81.90;;;9.84;72.91;96405.06;5026545;28;20529;-81
2023/01/15 05:09:20;;;;;;;1.00;0.60;;;10.20;82.00;;;9.87;73.52;96431.53;5048778;28;20449;-81
2023/01/15 05:11:47;;;;;;;1.17;0.50;;;10.20;82.20;;;9.84;73.85;96429.34;5028217;28;20471;-81
2023/01/15 05:14:16;;;;;;;0.90;0.60;;;10.10;82.50;;;9.69;73.75;96394.88;5056078;28;21029;-78
2023/01/15 05:16:43;;;;;;;0.53;0.53;;;10.10;82.50;;;9.51;74.30;96360.94;5034403;28;20506;-79
2023/01/15 05:19:10;;;;;;;0.80;0.40;;;10.10;82.40;;;9.77;73.65;96374.75;5046490;28;20491;-81
2023/01/15 05:21:42;;;;;;;1.37;0.53;;;10.10;82.40;;;9.87;74.04;96406.44;5027156;28;20470;-78
2023/01/15 05:24:16;;;;;;;1.47;0.50;;;10.10;82.40;;;9.71;73.44;96375.75;5030017;28;20454;-80
2023/01/15 05:26:44;;;;;;;1.10;0.50;;;10.10;82.20;;;9.95;72.85;96407.91;5040666;28;20457;-79
2023/01/15 05:29:13;;;;;;;0.60;0.50;;;10.20;82.20;;;10.01;72.58;96401.47;5025779;28;20826;-79
2023/01/15 05:31:43;;;;;;;0.60;0.53;;;10.20;82.30;;;9.98;72.58;96385.81;5041234;28;20568;-79
2023/01/15 05:34:11;;;;;;;0.60;0.33;;;10.20;82.10;;;10.07;72.62;96395.06;5033269;28;20869;-81
2023/01/15 05:36:39;;;;;;;0.90;0.63;;;10.20;82.10;;;9.98;72.81;96378.50;5055900;28;20453;-80
2023/01/15 05:39:07;;;;;;;1.70;0.50;;;10.30;82.00;;;9.67;72.01;96328.78;5063984;28;20464;-78
2023/01/15 05:41:51;;;;;;;1.13;0.30;;;10.30;82.00;;;10.07;72.62;96398.59;5053389;28;20455;-78
2023/01/15 05:44:23;;;;;;;0.60;0.57;;;10.30;81.90;;;9.96;72.54;96371.75;5043659;28;20539;-77
2023/01/15 05:46:53;;;;;;;0.50;0.40;;;10.40;81.80;;;10.06;71.94;96388.88;5019562;28;20481;-78
2023/01/15 05:49:23;;;;;;;0.80;0.50;;;10.40;81.70;;;10.10;72.02;96382.97;5035611;28;20456;-77
2023/01/15 05:51:51;;;;;;;0.77;0.37;;;10.50;81.80;;;9.70;71.63;96323.69;5035719;28;20543;-74
2023/01/15 05:54:21;;;;;;;0.97;0.40;;;10.40;81.70;;;10.23;71.56;96398.78;5038184;28;20461;-77
2023/01/15 05:56:51;;;;;;;0.80;0.53;;;10.50;81.60;;;10.20;71.81;96391.19;5019591;28;20502;-76
2023/01/15 05:59:22;;;;;;;0.77;0.40;;;10.50;82.10;;;10.27;71.25;96391.00;5039626;28;20468;-79
2023/01/15 06:01:50;;;;;;;0.60;0.40;;;10.50;81.60;;;9.93;71.81;96346.09;5046256;28;20448;-82
2023/01/15 06:04:20;;;;;;;0.53;0.50;;;10.50;81.60;;;10.32;71.36;96401.84;5045171;28;20759;-78
2023/01/15 06:06:49;;;;;;;1.37;0.57;;;10.50;81.60;;;10.26;71.68;96403.66;5046321;28;20455;-78
2023/01/15 06:09:17;;;;;;;0.50;0.40;;;10.50;81.50;;;10.28;72.20;96398.81;5039378;28;20508;-79
2023/01/15 06:11:44;;;;;;;0.60;0.40;;;10.50;81.60;;;9.87;72.32;96356.00;5035136;28;20456;-79
2023/01/15 06:14:13;;;;;;;0.97;0.40;;;10.50;81.70;;;9.94;72.86;96355.00;5021685;28;21083;-81
2023/01/15 06:16:40;;;;;;;0.90;0.47;;;10.50;82.00;;;10.04;73.73;96387.50;5037926;28;21000;-81
2023/01/15 06:19:09;;;;;;;2.13;0.50;;;10.40;82.70;;;10.05;74.43;96397.22;5032099;28;20455;-83
2023/01/15 06:21:37;;;;;;;0.50;0.40;;;10.30;83.40;;;9.98;75.48;96396.59;5037568;28;20454;-79
2023/01/15 06:24:05;;;;;;;0.60;0.50;;;10.30;84.00;;;9.94;76.63;96395.47;5039935;28;20453;-83
2023/01/15 06:26:33;;;;;;;2.23;0.40;;;10.30;84.80;;;9.87;77.47;96395.66;5040931;28;20464;-80
2023/01/15 06:29:00;;;;;;;0.53;0.40;;;10.20;85.90;;;9.63;77.36;96363.53;5039843;28;20488;-81
2023/01/15 06:31:29;;;;;;;0.90;0.50;;;10.10;86.50;;;9.91;77.84;96396.78;5037038;28;20457;-78
2023/01/15 06:33:56;;;;;;;1.17;0.40;;;10.10;86.80;;;9.90;78.29;96414.03;5021829;28;20449;-81
2023/01/15 06:36:28;;;;;;;0.90;0.80;;;10.00;89.00;;;9.68;81.14;96457.97;5042025;28;20455;-80
2023/01/15 06:38:56;;;;;;;1.33;0.57;;;10.00;90.90;;;9.27;85.42;96482.44;5042062;28;20972;-80
2023/01/15 06:47:21;;;;;;;0.87;0.63;;;9.10;99.90;;;8.18;90.85;96453.53;5033166;28;20472;-80
2023/01/15 06:49:51;;;;;;;0.50;0.40;;;8.80;99.90;;;8.11;92.02;96514.69;5030853;28;21078;-75
2023/01/15 06:52:19;;;;;;;0.50;0.40;;;8.50;99.90;;;7.63;93.12;96487.84;5034630;28;20464;-78
2023/01/15 06:54:47;;;;;;;1.53;0.50;;;8.30;99.90;;;7.44;93.18;96518.59;5016265;28;20861;-81
2023/01/15 06:57:14;;;;;;;0.60;0.40;;;8.00;99.90;;;7.55;94.24;96530.38;5034625;28;20464;-73
2023/01/15 06:59:41;;;;;;;0.90;0.30;;;7.90;99.90;;;7.52;93.53;96515.56;5036307;28;20481;-72
2023/01/15 07:02:11;;;;;;;0.90;0.47;;;7.90;99.90;;;7.45;93.42;96514.84;5032477;28;20463;-73
2023/01/15 07:04:38;;;;;;;0.30;0.20;;;7.90;99.90;;;7.35;93.22;96516.25;5016156;28;20529;-73
2023/01/15 07:07:06;;;;;;;1.63;0.60;;;7.80;99.90;;;7.37;94.09;96534.81;5036805;28;20449;-73
2023/01/15 07:09:33;;;;;;;0.67;0.60;;;7.70;99.90;;;7.17;94.76;96535.13;5049687;28;20528;-73
2023/01/15 07:12:00;;;;;;;0.70;0.70;;;7.60;99.90;;;7.18;94.46;96532.22;5057182;28;21145;-73
2023/01/15 07:14:28;;;;;;;1.20;0.70;;;7.50;99.90;;;7.28;94.14;96553.13;5045710;28;20459;-74
2023/01/15 07:16:57;;;;;;;0.80;0.50;;;7.50;99.90;;;7.16;94.80;96549.59;5026544;28;20453;-73
2023/01/15 07:19:26;;;;;;;0.40;0.40;;;7.50;99.90;;;7.14;94.65;96546.31;5048786;28;20470;-73
2023/01/15 07:21:53;;;;;;;0.40;0.20;;;7.40;99.90;;;7.07;94.53;96563.38;5053607;28;20459;-71
2023/01/15 07:24:20;;;;;;;0.50;0.40;;;7.30;99.90;;;7.07;94.33;96559.84;5039022;28;20460;-73
2023/01/15 07:26:48;;;;;;;0.50;0.30;;;7.40;99.90;;;7.07;94.13;96547.25;5051611;28;20462;-74
2023/01/15 07:29:15;;;;;;;0.50;0.30;;;7.30;99.90;;;7.00;93.97;96548.41;5050012;28;20498;-73
2023/01/15 07:31:42;;;;;;;0.40;0.30;;;7.30;99.90;;;6.98;93.97;96563.94;5048961;28;21302;-72
2023/01/15 07:34:10;;;;;;;0.40;0.30;;;7.30;99.90;;;6.87;93.96;96557.44;5049160;28;20496;-79
2023/01/15 07:36:38;;;;;;;0.60;0.30;;;7.20;99.90;;;6.90;93.74;96575.78;5045778;28;20531;-73
2023/01/15 07:39:06;;;;;;;1.27;0.50;;;7.30;99.90;;;6.88;94.48;96576.03;5041799;28;20498;-74
2023/01/15 07:49:53;;;;;;;1.13;0.83;;;7.10;99.90;;;6.77;94.41;96596.41;5040935;28;20490;-74
2023/01/15 07:52:22;;;;;;;3.03;0.77;;;7.10;99.90;;;6.75;94.55;96616.47;5034892;28;20463;-74
2023/01/15 07:54:50;;;;;;;0.90;0.90;;;7.10;99.90;;;6.54;94.70;96628.47;5044972;28;20484;-76
2023/01/15 07:57:21;;;;;;;0.53;0.53;;;7.00;99.90;;;6.47;95.57;96640.09;5012930;28;20492;-75
2023/01/15 07:59:48;;;;;;;1.00;0.70;;;6.90;99.90;;;6.42;95.33;96637.25;5045573;28;20541;-77
2023/01/15 08:02:16;;;;;;;0.60;0.60;;;6.80;99.90;;;6.20;95.45;96626.97;5045141;28;21020;-75
2023/01/15 08:04:43;;;;;;;2.93;0.60;;;6.80;99.90;;;6.14;96.06;96668.09;5052020;28;20536;-75
2023/01/15 08:07:11;;;;;;;1.33;0.77;;;6.70;99.90;;;6.19;96.59;96670.06;5047584;28;20469;-75
2023/01/15 08:09:40;;;;;;;1.40;0.80;;;6.60;99.90;;;6.10;96.84;96666.84;5056475;28;20481;-76
2023/01/15 08:17:38;;;;;;;1.13;0.80;;;6.50;99.90;;;5.72;94.64;96702.59;5046625;28;20451;-76
2023/01/15 08:20:09;;;;;;;0.80;0.73;;;6.30;99.90;;;5.32;93.69;96709.81;5039542;28;20552;-82
2023/01/15 08:22:38;;;;;;;0.53;0.50;;;5.90;99.90;;;5.15;93.78;96712.16;5043691;28;20477;-76
2023/01/15 08:25:10;;;;;;;0.50;0.40;;;5.70;99.90;;;5.05;93.20;96731.34;5044054;28;20518;-77
2023/01/15 08:27:39;;;;;;;1.27;0.50;;;5.60;99.90;;;4.93;92.80;96730.41;5053060;28;20450;-78
2023/01/15 08:30:10;;;;;;;0.77;0.50;;;5.50;99.90;;;4.85;93.31;96735.97;5052939;28;20776;-76
2023/01/15 08:32:37;;;;;;;1.23;0.50;;;5.50;99.90;;;4.89;93.11;96750.56;5048359;28;20465;-78
2023/01/15 08:35:05;;;;;;;0.50;0.40;;;5.40;99.90;;;4.84;93.17;96750.38;5046685;28;20930;-81
2023/01/15 08:37:32;;;;;;;0.70;0.50;;;5.40;99.90;;;4.89;93.46;96763.94;5039525;28;20521;-80
2023/01/15 08:40:00;;;;;;;0.50;0.47;;;5.40;99.90;;;4.77;93.31;96751.19;5045420;28;20437;-79
2023/01/15 08:42:28;;;;;;;2.40;0.57;;;5.30;99.90;;;4.92;93.01;96748.28;5043480;28;20520;-79
2023/01/15 08:44:55;;;;;;;0.83;0.50;;;5.40;99.90;;;4.79;92.99;96765.22;5029041;28;20515;-77
2023/01/15 08:47:23;;;;;;;0.50;0.40;;;5.30;99.90;;;4.55;92.55;96769.38;5042583;28;20454;-73
2023/01/15 08:49:50;;;;;;;0.80;0.60;;;5.20;99.90;;;4.57;92.60;96767.31;5042938;28;20488;-76
2023/01/15 08:52:18;;;;;;;0.90;0.40;;;5.10;99.90;;;4.50;92.82;96774.50;5030815;28;20946;-72
2023/01/15 08:54:45;;;;;;;0.97;0.50;;;5.10;99.90;;;4.53;93.16;96766.06;5037742;28;20465;-76
2023/01/15 08:57:12;;;;;;;0.67;0.47;;;5.10;99.90;;;4.49;91.69;96781.72;5037947;28;20464;-71
2023/01/15 08:59:42;;;;;;;0.83;0.40;;;5.00;99.90;;;4.43;92.36;96787.06;5018931;28;20470;-74
2023/01/15 09:02:12;;;;;;;0.50;0.50;;;5.00;99.90;;;4.37;90.85;96775.34;5040087;28;21042;-74
2023/01/15 09:04:40;;;;;;;0.97;0.60;;;5.00;99.90;;;4.59;91.68;96781.31;5037441;28;20441;-74
2023/01/15 09:07:07;;;;;;;0.63;0.50;;;5.00;99.90;;;4.62;91.72;96788.06;5034264;28;20470;-76
2023/01/15 09:09:36;;;;;;;1.03;0.90;;;5.00;99.90;;;4.57;90.87;96782.53;5028689;28;20465;-76
2023/01/15 09:12:04;;;;;;;1.60;0.90;;;5.00;99.90;;;4.58;90.88;96789.53;5044545;28;20469;-77
2023/01/15 09:14:31;;;;;;;1.00;0.70;;;5.00;99.90;;;4.46;91.07;96784.78;5040782;28;20966;-76
2023/01/15 09:17:00;;;;;;;0.80;0.70;;;5.00;99.90;;;4.74;91.55;96794.44;5021739;28;20871;-75
2023/01/15 09:19:27;;;;;;;1.13;0.83;;;5.10;99.90;;;4.87;90.86;96808.84;5037782;28;20546;-77
2023/01/15 09:21:54;;;;;;;1.70;0.77;;;5.20;99.90;;;4.86;90.11;96817.91;5045174;28;20469;-72
2023/01/15 09:24:22;;;;;;;1.03;0.60;;;5.20;99.90;;;4.77;89.90;96817.28;5042214;28;20446;-78
2023/01/15 09:26:52;;;;;;;0.93;0.60;;;5.20;99.90;;;4.82;89.62;96818.31;5041951;28;20537;-74
2023/01/15 09:29:19;;;;;;;1.00;0.90;;;5.20;99.90;;;4.83;90.96;96811.09;5048499;28;20487;-74
2023/01/15 09:31:46;;;;;;;2.07;1.03;;;5.20;99.90;;;4.70;90.58;96825.31;5025694;28;20484;-76
2023/01/15 09:34:15;;;;;;;1.50;0.83;;;5.10;99.90;;;4.74;91.25;96826.56;5043281;28;20969;-77
2023/01/15 09:36:42;;;;;;;1.17;0.97;;;5.10;99.90;;;4.91;90.89;96831.47;5036530;28;20538;-77
2023/01/15 09:39:10;;;;;;;1.07;0.73;;;5.20;99.90;;;4.82;90.86;96818.31;5034936;28;20486;-78
2023/01/15 09:42:07;;;;;;;1.10;0.70;;;5.30;99.90;;;4.92;91.12;96838.47;5036571;28;20479;-75
2023/01/15 09:45:00;;;;;;;4.03;1.00;;;5.30;99.90;;;4.80;90.44;96843.63;5043936;28;20457;-75
2023/01/15 09:47:35;;;;;;;1.53;0.83;;;5.20;99.90;;;4.52;91.32;96856.22;5036822;28;20948;-75
2023/01/15 09:50:20;;;;;;;1.60;1.20;;;5.00;99.90;;;4.59;91.18;96856.22;5027151;28;20473;-75
2023/01/15 09:53:18;;;;;;;1.50;1.30;;;5.00;99.90;;;4.63;91.76;96860.13;5036590;28;20548;-77
2023/01/15 09:55:48;;;;;;;1.33;1.03;;;5.00;99.90;;;4.73;91.01;96843.63;5035624;28;20453;-76
2023/01/15 09:58:18;;;;;;;1.27;0.80;;;5.10;99.90;;;4.80;89.52;96862.38;5043738;28;20514;-76
2023/01/15 10:00:49;;;;;;;1.03;0.70;;;5.20;99.90;;;4.66;89.35;96866.91;5038683;28;20537;-76
2023/01/15 10:03:29;;;;;;;1.87;1.10;;;5.10;98.30;;;4.96;91.26;96859.28;5037559;28;20981;-76
2023/01/15 10:06:10;;;;;;;1.10;1.00;;;5.20;99.90;;;4.81;88.51;96875.56;5040779;28;20486;-76
2023/01/15 10:08:42;;;;;;;1.60;1.00;;;5.30;97.30;;;4.53;88.72;96875.75;5037474;28;20466;-77
2023/01/15 10:12:34;;;;;;;0.90;0.70;;;5.10;96.20;;;4.56;89.63;96882.53;5039189;28;20559;-74
2023/01/15 10:14:39;;;;;;;2.03;0.93;;;5.00;98.30;;;4.38;89.22;96875.94;5016050;28;20461;-76
2023/01/15 10:17:27;;;;;;;0.63;0.60;;;4.90;97.70;;;4.33;88.74;96867.72;5039775;28;21181;-76
2023/01/15 10:19:56;;;;;;;3.50;1.90;;;4.80;97.80;;;4.49;89.80;96877.19;5025233;28;20944;-77
2023/01/15 10:22:48;;;;;;;1.53;1.43;;;4.90;99.90;;;4.39;90.18;96858.88;5015717;28;20500;-76
2023/01/15 10:25:21;;;;;;;2.20;1.27;;;4.90;99.90;;;4.50;90.71;96879.66;5016383;28;20449;-76
2023/01/15 10:27:52;;;;;;;1.23;1.00;;;4.90;99.90;;;4.64;90.67;96895.72;5045341;28;20521;-75
2023/01/15 10:30:31;;;;;;;2.30;1.20;;;4.90;99.90;;;4.74;90.87;96900.69;5035395;28;20860;-74
2023/01/15 10:33:15;;;;;;;2.00;1.23;;;5.10;99.90;;;4.89;90.42;96906.66;5048376;28;20457;-76
2023/01/15 10:35:49;;;;;;;2.13;1.30;;;5.10;99.90;;;4.80;90.21;96906.03;5027277;28;20616;-77
2023/01/15 10:38:27;;;;;;;1.33;1.10;;;5.10;99.90;;;4.59;90.15;96866.06;5048454;28;20569;-77
2023/01/15 10:41:14;;;;;;;1.63;1.53;;;5.10;99.90;;;4.71;89.40;96917.94;5031187;28;20561;-76
2023/01/15 10:43:49;;;;;;;1.00;0.90;;;5.10;99.90;;;4.48;90.13;96913.81;5022855;28;20982;-76
2023/01/15 10:46:19;;;;;;;1.37;1.27;;;5.00;99.90;;;4.60;90.69;96911.38;5047632;28;20474;-75
2023/01/15 10:48:51;;;;;;;0.80;0.80;;;5.00;99.90;;;4.82;89.05;96917.34;5026139;28;20587;-76
2023/01/15 10:51:22;;;;;;;0.70;0.70;;;5.10;99.90;;;4.66;88.17;96920.44;5039233;28;20454;-78
2023/01/15 10:53:55;;;;;;;0.90;0.73;;;5.00;97.00;;;4.87;88.83;96910.53;5039111;28;20540;-77
2023/01/15 10:56:33;;;;;;;1.70;0.83;;;5.10;98.60;;;4.86;87.97;96903.56;5023312;28;20457;-76
2023/01/15 10:59:11;;;;;;;0.50;0.50;;;5.10;97.40;;;4.89;86.95;96921.88;5028225;28;20446;-77
2023/01/15 11:01:40;;;;;;;1.07;0.80;;;5.20;97.50;;;4.93;87.10;96909.75;5038150;28;20464;-76
2023/01/15 11:04:11;;;;;;;5.00;3.37;;;5.20;96.90;;;4.53;87.37;96840.97;5047542;28;20489;-73
2023/01/15 11:06:40;;;;;;;1.30;0.97;;;5.30;96.60;;;4.95;86.29;96918.38;5035173;28;21008;-75
2023/01/15 11:09:19;;;;;;;2.50;1.20;;;5.30;95.70;;;4.79;87.41;96925.78;5032339;28;20665;-73
2023/01/15 11:20:29;;;;;;;2.67;1.13;;;5.10;98.30;;;4.80;88.71;96911.38;5047138;28;20464;-73
2023/01/15 11:22:57;;;;;;;3.00;1.40;;;5.20;99.90;;;4.91;89.46;96912.59;5044669;28;20453;-77